sensor_id;sensor_type;location;lat;lon;timestamp;P1;durP1;ratioP1;P2;durP2;ratioP2
75441;SDS011;64019;48.312;14.226;2022-12-07T00:01:19;30.17;;;15.13;;
75441;SDS011;64019;48.312;14.226;2022-12-07T00:03:51;29.20;;;14.90;;
75441;SDS011;64019;48.312;14.226;2022-12-07T00:06:19;31.80;;;15.30;;
75441;SDS011;64019;48.312;14.226;2022-12-07T00:08:45;30.90;;;15.97;;
75441;SDS011;64019;48.312;14.226;2022-12-07T00:11:14;30.57;;;15.20;;
75441;SDS011;64019;48.312;14.226;2022-12-07T00:13:41;35.03;;;15.80;;
75441;SDS011;64019;48.312;14.226;2022-12-07T00:16:14;35.40;;;15.27;;
75441;SDS011;64019;48.312;14.226;2022-12-07T00:18:42;30.77;;;14.53;;
75441;SDS011;64019;48.312;14.226;2022-12-07T00:21:12;28.60;;;14.33;;
75441;SDS011;64019;48.312;14.226;2022-12-07T00:23:41;32.23;;;15.60;;
75441;SDS011;64019;48.312;14.226;2022-12-07T00:26:08;31.67;;;14.27;;
75441;SDS011;64019;48.312;14.226;2022-12-07T00:28:49;29.10;;;15.20;;
75441;SDS011;64019;48.312;14.226;2022-12-07T00:31:17;28.23;;;14.60;;
75441;SDS011;64019;48.312;14.226;2022-12-07T00:33:46;38.07;;;13.43;;
75441;SDS011;64019;48.312;14.226;2022-12-07T00:36:12;25.83;;;13.53;;
75441;SDS011;64019;48.312;14.226;2022-12-07T00:38:40;28.00;;;14.37;;
75441;SDS011;64019;48.312;14.226;2022-12-07T00:41:11;29.27;;;14.43;;
75441;SDS011;64019;48.312;14.226;2022-12-07T00:43:38;27.87;;;13.33;;
75441;SDS011;64019;48.312;14.226;2022-12-07T00:46:05;29.27;;;14.83;;
75441;SDS011;64019;48.312;14.226;2022-12-07T00:48:31;29.73;;;13.83;;
75441;SDS011;64019;48.312;14.226;2022-12-07T00:50:56;24.83;;;13.67;;
75441;SDS011;64019;48.312;14.226;2022-12-07T00:53:22;26.50;;;13.60;;
75441;SDS011;64019;48.312;14.226;2022-12-07T00:55:48;27.47;;;13.87;;
75441;SDS011;64019;48.312;14.226;2022-12-07T00:58:14;31.53;;;14.20;;
75441;SDS011;64019;48.312;14.226;2022-12-07T01:00:40;26.40;;;13.50;;
75441;SDS011;64019;48.312;14.226;2022-12-07T01:03:08;23.77;;;12.77;;
75441;SDS011;64019;48.312;14.226;2022-12-07T01:05:36;26.90;;;12.80;;
75441;SDS011;64019;48.312;14.226;2022-12-07T01:08:02;26.80;;;13.83;;
75441;SDS011;64019;48.312;14.226;2022-12-07T01:10:28;22.23;;;12.13;;
75441;SDS011;64019;48.312;14.226;2022-12-07T01:12:55;25.60;;;12.63;;
75441;SDS011;64019;48.312;14.226;2022-12-07T01:15:21;29.80;;;13.43;;
75441;SDS011;64019;48.312;14.226;2022-12-07T01:17:47;27.70;;;13.37;;
75441;SDS011;64019;48.312;14.226;2022-12-07T01:20:13;22.90;;;12.37;;
75441;SDS011;64019;48.312;14.226;2022-12-07T01:22:41;28.10;;;12.33;;
75441;SDS011;64019;48.312;14.226;2022-12-07T01:25:08;28.60;;;12.60;;
75441;SDS011;64019;48.312;14.226;2022-12-07T01:27:35;21.83;;;11.73;;
75441;SDS011;64019;48.312;14.226;2022-12-07T01:30:01;27.90;;;13.37;;
75441;SDS011;64019;48.312;14.226;2022-12-07T01:32:27;28.20;;;12.80;;
75441;SDS011;64019;48.312;14.226;2022-12-07T01:34:54;23.23;;;12.27;;
75441;SDS011;64019;48.312;14.226;2022-12-07T01:37:19;23.93;;;12.20;;
75441;SDS011;64019;48.312;14.226;2022-12-07T01:39:48;22.23;;;12.37;;
75441;SDS011;64019;48.312;14.226;2022-12-07T01:42:14;25.50;;;11.97;;
75441;SDS011;64019;48.312;14.226;2022-12-07T01:47:43;19.90;;;11.03;;
75441;SDS011;64019;48.312;14.226;2022-12-07T01:50:12;23.93;;;11.73;;
75441;SDS011;64019;48.312;14.226;2022-12-07T01:52:38;23.33;;;11.57;;
75441;SDS011;64019;48.312;14.226;2022-12-07T01:55:07;22.53;;;11.27;;
75441;SDS011;64019;48.312;14.226;2022-12-07T01:57:38;25.27;;;11.77;;
75441;SDS011;64019;48.312;14.226;2022-12-07T02:00:07;24.03;;;11.43;;
75441;SDS011;64019;48.312;14.226;2022-12-07T02:02:34;23.63;;;11.73;;
75441;SDS011;64019;48.312;14.226;2022-12-07T02:05:21;21.53;;;11.33;;
75441;SDS011;64019;48.312;14.226;2022-12-07T02:07:49;23.23;;;12.10;;
75441;SDS011;64019;48.312;14.226;2022-12-07T02:10:19;21.80;;;11.23;;
75441;SDS011;64019;48.312;14.226;2022-12-07T02:12:49;25.00;;;11.57;;
75441;SDS011;64019;48.312;14.226;2022-12-07T02:15:20;24.07;;;11.90;;
75441;SDS011;64019;48.312;14.226;2022-12-07T02:20:26;18.40;;;10.20;;
75441;SDS011;64019;48.312;14.226;2022-12-07T02:25:52;21.13;;;10.97;;
75441;SDS011;64019;48.312;14.226;2022-12-07T02:28:31;18.30;;;10.37;;
75441;SDS011;64019;48.312;14.226;2022-12-07T02:31:08;24.20;;;10.47;;
75441;SDS011;64019;48.312;14.226;2022-12-07T02:33:42;20.77;;;11.03;;
75441;SDS011;64019;48.312;14.226;2022-12-07T02:36:19;20.53;;;10.07;;
75441;SDS011;64019;48.312;14.226;2022-12-07T02:41:56;22.17;;;10.13;;
75441;SDS011;64019;48.312;14.226;2022-12-07T02:44:32;18.30;;;9.50;;
75441;SDS011;64019;48.312;14.226;2022-12-07T02:47:01;24.27;;;10.37;;
75441;SDS011;64019;48.312;14.226;2022-12-07T02:49:33;17.40;;;9.50;;
75441;SDS011;64019;48.312;14.226;2022-12-07T02:52:00;18.73;;;9.70;;
75441;SDS011;64019;48.312;14.226;2022-12-07T02:54:26;21.63;;;10.53;;
75441;SDS011;64019;48.312;14.226;2022-12-07T02:57:14;20.17;;;9.43;;
75441;SDS011;64019;48.312;14.226;2022-12-07T03:02:35;15.40;;;9.10;;
75441;SDS011;64019;48.312;14.226;2022-12-07T03:05:24;18.43;;;8.53;;
75441;SDS011;64019;48.312;14.226;2022-12-07T03:08:02;16.57;;;8.63;;
75441;SDS011;64019;48.312;14.226;2022-12-07T03:18:33;14.67;;;8.50;;
75441;SDS011;64019;48.312;14.226;2022-12-07T03:21:05;16.10;;;8.27;;
75441;SDS011;64019;48.312;14.226;2022-12-07T03:23:37;13.90;;;8.10;;
75441;SDS011;64019;48.312;14.226;2022-12-07T03:26:05;16.80;;;7.93;;
75441;SDS011;64019;48.312;14.226;2022-12-07T03:28:36;14.17;;;8.03;;
75441;SDS011;64019;48.312;14.226;2022-12-07T03:31:15;12.87;;;8.27;;
75441;SDS011;64019;48.312;14.226;2022-12-07T03:34:01;11.83;;;6.90;;
75441;SDS011;64019;48.312;14.226;2022-12-07T03:36:32;15.10;;;7.10;;
75441;SDS011;64019;48.312;14.226;2022-12-07T03:39:13;13.30;;;7.63;;
75441;SDS011;64019;48.312;14.226;2022-12-07T03:42:01;11.27;;;6.97;;
75441;SDS011;64019;48.312;14.226;2022-12-07T03:44:29;14.37;;;7.63;;
75441;SDS011;64019;48.312;14.226;2022-12-07T03:49:56;13.87;;;7.23;;
75441;SDS011;64019;48.312;14.226;2022-12-07T03:57:54;14.47;;;6.77;;
75441;SDS011;64019;48.312;14.226;2022-12-07T04:00:23;13.23;;;7.27;;
75441;SDS011;64019;48.312;14.226;2022-12-07T04:02:51;10.63;;;6.67;;
75441;SDS011;64019;48.312;14.226;2022-12-07T04:05:17;13.83;;;7.17;;
75441;SDS011;64019;48.312;14.226;2022-12-07T04:07:43;14.60;;;6.43;;
75441;SDS011;64019;48.312;14.226;2022-12-07T04:10:09;12.77;;;7.23;;
75441;SDS011;64019;48.312;14.226;2022-12-07T04:12:35;13.33;;;7.37;;
75441;SDS011;64019;48.312;14.226;2022-12-07T04:15:01;13.47;;;6.90;;
75441;SDS011;64019;48.312;14.226;2022-12-07T04:17:28;14.30;;;7.23;;
75441;SDS011;64019;48.312;14.226;2022-12-07T04:19:53;19.07;;;6.47;;
75441;SDS011;64019;48.312;14.226;2022-12-07T04:22:19;12.00;;;6.73;;
75441;SDS011;64019;48.312;14.226;2022-12-07T04:24:45;12.90;;;6.50;;
75441;SDS011;64019;48.312;14.226;2022-12-07T04:27:10;12.30;;;7.40;;
75441;SDS011;64019;48.312;14.226;2022-12-07T04:29:36;9.03;;;6.27;;
75441;SDS011;64019;48.312;14.226;2022-12-07T04:32:02;10.60;;;6.17;;
75441;SDS011;64019;48.312;14.226;2022-12-07T04:34:27;11.27;;;7.03;;
75441;SDS011;64019;48.312;14.226;2022-12-07T04:36:53;10.73;;;6.47;;
75441;SDS011;64019;48.312;14.226;2022-12-07T04:39:26;10.20;;;6.43;;
75441;SDS011;64019;48.312;14.226;2022-12-07T04:41:53;10.10;;;5.70;;
75441;SDS011;64019;48.312;14.226;2022-12-07T04:44:19;13.47;;;7.17;;
75441;SDS011;64019;48.312;14.226;2022-12-07T04:46:46;9.77;;;6.10;;
75441;SDS011;64019;48.312;14.226;2022-12-07T04:49:12;9.87;;;6.23;;
75441;SDS011;64019;48.312;14.226;2022-12-07T04:51:39;12.07;;;6.40;;
75441;SDS011;64019;48.312;14.226;2022-12-07T04:54:05;11.27;;;6.60;;
75441;SDS011;64019;48.312;14.226;2022-12-07T04:56:30;11.97;;;6.90;;
75441;SDS011;64019;48.312;14.226;2022-12-07T04:58:56;11.30;;;6.17;;
75441;SDS011;64019;48.312;14.226;2022-12-07T05:01:22;15.03;;;7.50;;
75441;SDS011;64019;48.312;14.226;2022-12-07T05:03:49;9.10;;;5.80;;
75441;SDS011;64019;48.312;14.226;2022-12-07T05:06:15;11.07;;;6.80;;
75441;SDS011;64019;48.312;14.226;2022-12-07T05:08:41;11.07;;;6.23;;
75441;SDS011;64019;48.312;14.226;2022-12-07T05:11:08;10.77;;;6.43;;
75441;SDS011;64019;48.312;14.226;2022-12-07T05:13:34;13.70;;;7.20;;
75441;SDS011;64019;48.312;14.226;2022-12-07T05:16:01;14.43;;;7.07;;
75441;SDS011;64019;48.312;14.226;2022-12-07T05:18:27;11.53;;;6.47;;
75441;SDS011;64019;48.312;14.226;2022-12-07T05:20:52;10.33;;;6.63;;
75441;SDS011;64019;48.312;14.226;2022-12-07T05:23:18;11.60;;;6.27;;
75441;SDS011;64019;48.312;14.226;2022-12-07T05:25:45;10.70;;;6.63;;
75441;SDS011;64019;48.312;14.226;2022-12-07T05:28:11;9.87;;;6.50;;
75441;SDS011;64019;48.312;14.226;2022-12-07T05:30:37;10.53;;;6.17;;
75441;SDS011;64019;48.312;14.226;2022-12-07T05:33:02;16.27;;;6.73;;
75441;SDS011;64019;48.312;14.226;2022-12-07T05:35:28;15.17;;;7.07;;
75441;SDS011;64019;48.312;14.226;2022-12-07T05:37:55;9.33;;;6.07;;
75441;SDS011;64019;48.312;14.226;2022-12-07T05:40:21;10.93;;;6.40;;
75441;SDS011;64019;48.312;14.226;2022-12-07T05:42:46;11.90;;;6.97;;
75441;SDS011;64019;48.312;14.226;2022-12-07T05:45:12;11.37;;;6.87;;
75441;SDS011;64019;48.312;14.226;2022-12-07T05:47:38;12.80;;;7.60;;
75441;SDS011;64019;48.312;14.226;2022-12-07T05:50:04;11.67;;;6.30;;
75441;SDS011;64019;48.312;14.226;2022-12-07T05:52:30;11.50;;;6.63;;
75441;SDS011;64019;48.312;14.226;2022-12-07T05:54:56;11.53;;;6.70;;
75441;SDS011;64019;48.312;14.226;2022-12-07T05:57:22;13.37;;;7.17;;
75441;SDS011;64019;48.312;14.226;2022-12-07T05:59:47;11.73;;;7.00;;
75441;SDS011;64019;48.312;14.226;2022-12-07T06:02:14;11.83;;;6.70;;
75441;SDS011;64019;48.312;14.226;2022-12-07T06:04:41;11.50;;;6.90;;
75441;SDS011;64019;48.312;14.226;2022-12-07T06:07:08;12.00;;;6.70;;
75441;SDS011;64019;48.312;14.226;2022-12-07T06:09:35;9.90;;;5.80;;
75441;SDS011;64019;48.312;14.226;2022-12-07T06:12:01;15.87;;;8.07;;
75441;SDS011;64019;48.312;14.226;2022-12-07T06:14:46;10.73;;;6.77;;
75441;SDS011;64019;48.312;14.226;2022-12-07T06:17:12;13.20;;;7.63;;
75441;SDS011;64019;48.312;14.226;2022-12-07T06:19:38;15.03;;;7.57;;
75441;SDS011;64019;48.312;14.226;2022-12-07T06:22:04;14.13;;;7.13;;
75441;SDS011;64019;48.312;14.226;2022-12-07T06:24:31;13.43;;;7.17;;
75441;SDS011;64019;48.312;14.226;2022-12-07T06:26:57;13.27;;;7.97;;
75441;SDS011;64019;48.312;14.226;2022-12-07T06:29:23;14.03;;;8.27;;
75441;SDS011;64019;48.312;14.226;2022-12-07T06:31:49;12.73;;;7.73;;
75441;SDS011;64019;48.312;14.226;2022-12-07T06:34:16;16.20;;;8.20;;
75441;SDS011;64019;48.312;14.226;2022-12-07T06:36:43;13.70;;;7.73;;
75441;SDS011;64019;48.312;14.226;2022-12-07T06:39:09;17.60;;;8.13;;
75441;SDS011;64019;48.312;14.226;2022-12-07T06:41:38;16.13;;;8.17;;
75441;SDS011;64019;48.312;14.226;2022-12-07T06:44:05;13.03;;;7.47;;
75441;SDS011;64019;48.312;14.226;2022-12-07T06:46:31;14.43;;;8.63;;
75441;SDS011;64019;48.312;14.226;2022-12-07T06:48:57;14.83;;;8.20;;
75441;SDS011;64019;48.312;14.226;2022-12-07T06:51:23;13.60;;;7.27;;
75441;SDS011;64019;48.312;14.226;2022-12-07T06:53:48;12.27;;;7.17;;
75441;SDS011;64019;48.312;14.226;2022-12-07T06:56:14;14.13;;;7.67;;
75441;SDS011;64019;48.312;14.226;2022-12-07T06:58:40;13.83;;;8.03;;
75441;SDS011;64019;48.312;14.226;2022-12-07T07:01:13;13.93;;;7.93;;
75441;SDS011;64019;48.312;14.226;2022-12-07T07:03:40;15.57;;;8.40;;
75441;SDS011;64019;48.312;14.226;2022-12-07T07:06:06;14.20;;;8.47;;
75441;SDS011;64019;48.312;14.226;2022-12-07T07:08:33;14.03;;;8.20;;
75441;SDS011;64019;48.312;14.226;2022-12-07T07:10:59;12.77;;;8.07;;
75441;SDS011;64019;48.312;14.226;2022-12-07T07:13:26;15.77;;;8.00;;
75441;SDS011;64019;48.312;14.226;2022-12-07T07:15:52;14.63;;;8.33;;
75441;SDS011;64019;48.312;14.226;2022-12-07T07:18:18;14.17;;;8.07;;
75441;SDS011;64019;48.312;14.226;2022-12-07T07:20:44;17.13;;;8.07;;
75441;SDS011;64019;48.312;14.226;2022-12-07T07:23:10;13.80;;;8.13;;
75441;SDS011;64019;48.312;14.226;2022-12-07T07:25:35;15.73;;;8.57;;
75441;SDS011;64019;48.312;14.226;2022-12-07T07:28:01;14.10;;;8.37;;
75441;SDS011;64019;48.312;14.226;2022-12-07T07:30:27;18.50;;;8.07;;
75441;SDS011;64019;48.312;14.226;2022-12-07T07:32:56;16.40;;;8.63;;
75441;SDS011;64019;48.312;14.226;2022-12-07T07:35:23;16.43;;;8.97;;
75441;SDS011;64019;48.312;14.226;2022-12-07T07:37:49;14.20;;;8.33;;
75441;SDS011;64019;48.312;14.226;2022-12-07T07:40:15;16.57;;;8.60;;
75441;SDS011;64019;48.312;14.226;2022-12-07T07:42:41;16.97;;;8.03;;
75441;SDS011;64019;48.312;14.226;2022-12-07T07:45:07;17.00;;;8.87;;
75441;SDS011;64019;48.312;14.226;2022-12-07T07:47:33;13.23;;;7.70;;
75441;SDS011;64019;48.312;14.226;2022-12-07T07:49:59;13.80;;;7.50;;
75441;SDS011;64019;48.312;14.226;2022-12-07T07:52:25;14.80;;;8.30;;
75441;SDS011;64019;48.312;14.226;2022-12-07T07:54:51;16.83;;;8.73;;
75441;SDS011;64019;48.312;14.226;2022-12-07T07:57:17;15.50;;;8.87;;
75441;SDS011;64019;48.312;14.226;2022-12-07T07:59:42;17.00;;;8.40;;
75441;SDS011;64019;48.312;14.226;2022-12-07T08:02:15;14.00;;;7.90;;
75441;SDS011;64019;48.312;14.226;2022-12-07T08:04:42;17.43;;;8.53;;
75441;SDS011;64019;48.312;14.226;2022-12-07T08:07:08;14.93;;;8.47;;
75441;SDS011;64019;48.312;14.226;2022-12-07T08:09:34;14.87;;;8.40;;
75441;SDS011;64019;48.312;14.226;2022-12-07T08:12:00;14.17;;;8.03;;
75441;SDS011;64019;48.312;14.226;2022-12-07T08:14:26;16.13;;;7.53;;
75441;SDS011;64019;48.312;14.226;2022-12-07T08:16:53;16.43;;;7.97;;
75441;SDS011;64019;48.312;14.226;2022-12-07T08:19:19;16.03;;;8.80;;
75441;SDS011;64019;48.312;14.226;2022-12-07T08:21:45;14.10;;;7.70;;
75441;SDS011;64019;48.312;14.226;2022-12-07T08:24:11;13.57;;;7.90;;
75441;SDS011;64019;48.312;14.226;2022-12-07T08:26:37;16.73;;;8.83;;
75441;SDS011;64019;48.312;14.226;2022-12-07T08:29:02;14.97;;;8.50;;
75441;SDS011;64019;48.312;14.226;2022-12-07T08:31:28;14.40;;;8.73;;
75441;SDS011;64019;48.312;14.226;2022-12-07T08:33:54;14.33;;;8.40;;
75441;SDS011;64019;48.312;14.226;2022-12-07T08:36:20;14.97;;;8.57;;
75441;SDS011;64019;48.312;14.226;2022-12-07T08:38:47;17.03;;;8.20;;
75441;SDS011;64019;48.312;14.226;2022-12-07T08:41:14;17.77;;;8.87;;
75441;SDS011;64019;48.312;14.226;2022-12-07T08:43:40;15.80;;;8.77;;
75441;SDS011;64019;48.312;14.226;2022-12-07T08:48:32;14.27;;;8.33;;
75441;SDS011;64019;48.312;14.226;2022-12-07T08:51:01;17.13;;;8.93;;
75441;SDS011;64019;48.312;14.226;2022-12-07T08:53:27;16.37;;;8.53;;
75441;SDS011;64019;48.312;14.226;2022-12-07T08:55:54;17.00;;;8.83;;
75441;SDS011;64019;48.312;14.226;2022-12-07T08:58:21;15.77;;;8.47;;
75441;SDS011;64019;48.312;14.226;2022-12-07T09:00:47;18.10;;;9.47;;
75441;SDS011;64019;48.312;14.226;2022-12-07T09:03:13;17.63;;;9.87;;
75441;SDS011;64019;48.312;14.226;2022-12-07T09:05:38;18.20;;;9.87;;
75441;SDS011;64019;48.312;14.226;2022-12-07T09:08:04;17.70;;;9.00;;
75441;SDS011;64019;48.312;14.226;2022-12-07T09:10:31;16.93;;;9.27;;
75441;SDS011;64019;48.312;14.226;2022-12-07T09:12:57;14.93;;;9.10;;
75441;SDS011;64019;48.312;14.226;2022-12-07T09:15:26;17.50;;;8.20;;
75441;SDS011;64019;48.312;14.226;2022-12-07T09:17:52;17.13;;;8.67;;
75441;SDS011;64019;48.312;14.226;2022-12-07T09:20:18;16.27;;;9.17;;
75441;SDS011;64019;48.312;14.226;2022-12-07T09:22:44;13.53;;;8.63;;
75441;SDS011;64019;48.312;14.226;2022-12-07T09:25:10;17.17;;;8.63;;
75441;SDS011;64019;48.312;14.226;2022-12-07T09:27:35;15.27;;;8.83;;
75441;SDS011;64019;48.312;14.226;2022-12-07T09:30:02;18.67;;;9.23;;
75441;SDS011;64019;48.312;14.226;2022-12-07T09:32:28;14.90;;;8.93;;
75441;SDS011;64019;48.312;14.226;2022-12-07T09:34:54;14.10;;;8.47;;
75441;SDS011;64019;48.312;14.226;2022-12-07T09:37:20;15.93;;;8.43;;
75441;SDS011;64019;48.312;14.226;2022-12-07T09:39:45;15.33;;;8.43;;
75441;SDS011;64019;48.312;14.226;2022-12-07T09:42:17;17.13;;;9.57;;
75441;SDS011;64019;48.312;14.226;2022-12-07T09:44:50;16.27;;;8.23;;
75441;SDS011;64019;48.312;14.226;2022-12-07T09:47:16;22.33;;;9.10;;
75441;SDS011;64019;48.312;14.226;2022-12-07T09:49:42;16.20;;;8.70;;
75441;SDS011;64019;48.312;14.226;2022-12-07T09:54:34;13.50;;;8.13;;
75441;SDS011;64019;48.312;14.226;2022-12-07T09:57:02;14.80;;;8.27;;
75441;SDS011;64019;48.312;14.226;2022-12-07T09:59:28;15.50;;;8.23;;
75441;SDS011;64019;48.312;14.226;2022-12-07T10:01:54;14.63;;;8.63;;
75441;SDS011;64019;48.312;14.226;2022-12-07T10:04:21;15.70;;;8.83;;
75441;SDS011;64019;48.312;14.226;2022-12-07T10:06:50;16.43;;;8.77;;
75441;SDS011;64019;48.312;14.226;2022-12-07T10:09:17;15.27;;;8.30;;
75441;SDS011;64019;48.312;14.226;2022-12-07T10:12:04;16.23;;;8.27;;
75441;SDS011;64019;48.312;14.226;2022-12-07T10:14:35;16.60;;;8.03;;
75441;SDS011;64019;48.312;14.226;2022-12-07T10:17:31;17.97;;;9.00;;
75441;SDS011;64019;48.312;14.226;2022-12-07T10:25:22;14.83;;;8.47;;
75441;SDS011;64019;48.312;14.226;2022-12-07T10:30:33;12.37;;;8.03;;
75441;SDS011;64019;48.312;14.226;2022-12-07T10:33:32;14.20;;;7.67;;
75441;SDS011;64019;48.312;14.226;2022-12-07T10:36:36;17.60;;;9.10;;
75441;SDS011;64019;48.312;14.226;2022-12-07T10:44:24;18.00;;;9.17;;
75441;SDS011;64019;48.312;14.226;2022-12-07T10:49:53;14.33;;;9.00;;
75441;SDS011;64019;48.312;14.226;2022-12-07T11:23:29;14.30;;;7.50;;
75441;SDS011;64019;48.312;14.226;2022-12-07T11:26:06;10.40;;;6.43;;
75441;SDS011;64019;48.312;14.226;2022-12-07T11:31:44;13.13;;;7.03;;
75441;SDS011;64019;48.312;14.226;2022-12-07T11:34:30;14.20;;;7.73;;
75441;SDS011;64019;48.312;14.226;2022-12-07T11:37:23;13.17;;;7.47;;
75441;SDS011;64019;48.312;14.226;2022-12-07T11:39:55;13.83;;;7.13;;
75441;SDS011;64019;48.312;14.226;2022-12-07T11:42:27;10.60;;;6.40;;
75441;SDS011;64019;48.312;14.226;2022-12-07T11:45:00;10.23;;;6.50;;
75441;SDS011;64019;48.312;14.226;2022-12-07T11:47:38;11.73;;;6.70;;
75441;SDS011;64019;48.312;14.226;2022-12-07T11:55:34;10.47;;;5.80;;
75441;SDS011;64019;48.312;14.226;2022-12-07T12:01:11;11.27;;;6.60;;
75441;SDS011;64019;48.312;14.226;2022-12-07T12:03:40;12.97;;;6.53;;
75441;SDS011;64019;48.312;14.226;2022-12-07T12:06:14;11.90;;;6.47;;
75441;SDS011;64019;48.312;14.226;2022-12-07T12:08:47;8.43;;;5.50;;
75441;SDS011;64019;48.312;14.226;2022-12-07T12:21:47;10.63;;;6.53;;
75441;SDS011;64019;48.312;14.226;2022-12-07T12:24:15;10.17;;;6.27;;
75441;SDS011;64019;48.312;14.226;2022-12-07T12:26:53;8.93;;;5.43;;
75441;SDS011;64019;48.312;14.226;2022-12-07T12:29:32;10.37;;;5.60;;
75441;SDS011;64019;48.312;14.226;2022-12-07T12:32:36;10.50;;;5.70;;
75441;SDS011;64019;48.312;14.226;2022-12-07T12:37:54;10.27;;;5.47;;
75441;SDS011;64019;48.312;14.226;2022-12-07T12:47:39;8.83;;;5.47;;
75441;SDS011;64019;48.312;14.226;2022-12-07T12:57:35;9.33;;;5.50;;
75441;SDS011;64019;48.312;14.226;2022-12-07T13:00:18;13.00;;;6.40;;
75441;SDS011;64019;48.312;14.226;2022-12-07T13:02:50;10.93;;;5.60;;
75441;SDS011;64019;48.312;14.226;2022-12-07T13:05:21;11.83;;;6.90;;
75441;SDS011;64019;48.312;14.226;2022-12-07T13:12:59;10.40;;;5.90;;
75441;SDS011;64019;48.312;14.226;2022-12-07T13:15:39;9.57;;;5.47;;
75441;SDS011;64019;48.312;14.226;2022-12-07T13:20:53;9.10;;;5.27;;
75441;SDS011;64019;48.312;14.226;2022-12-07T13:23:27;9.30;;;5.17;;
75441;SDS011;64019;48.312;14.226;2022-12-07T13:25:55;10.87;;;5.63;;
75441;SDS011;64019;48.312;14.226;2022-12-07T13:28:36;10.53;;;6.13;;
75441;SDS011;64019;48.312;14.226;2022-12-07T13:33:55;11.20;;;6.40;;
75441;SDS011;64019;48.312;14.226;2022-12-07T13:36:29;12.70;;;6.73;;
75441;SDS011;64019;48.312;14.226;2022-12-07T13:39:10;12.73;;;6.80;;
75441;SDS011;64019;48.312;14.226;2022-12-07T13:41:54;13.37;;;6.90;;
75441;SDS011;64019;48.312;14.226;2022-12-07T13:44:24;12.53;;;6.60;;
75441;SDS011;64019;48.312;14.226;2022-12-07T13:47:05;13.10;;;6.93;;
75441;SDS011;64019;48.312;14.226;2022-12-07T13:49:48;16.70;;;7.03;;
75441;SDS011;64019;48.312;14.226;2022-12-07T13:52:17;12.33;;;6.67;;
75441;SDS011;64019;48.312;14.226;2022-12-07T13:57:31;14.00;;;6.80;;
75441;SDS011;64019;48.312;14.226;2022-12-07T14:00:02;16.40;;;7.87;;
75441;SDS011;64019;48.312;14.226;2022-12-07T14:02:31;12.23;;;7.20;;
75441;SDS011;64019;48.312;14.226;2022-12-07T14:05:08;14.00;;;7.20;;
75441;SDS011;64019;48.312;14.226;2022-12-07T14:10:28;12.70;;;7.07;;
75441;SDS011;64019;48.312;14.226;2022-12-07T14:12:56;13.47;;;7.10;;
75441;SDS011;64019;48.312;14.226;2022-12-07T14:15:24;15.07;;;7.40;;
75441;SDS011;64019;48.312;14.226;2022-12-07T14:18:00;15.13;;;8.27;;
75441;SDS011;64019;48.312;14.226;2022-12-07T14:20:39;14.03;;;7.10;;
75441;SDS011;64019;48.312;14.226;2022-12-07T14:23:21;13.40;;;7.53;;
75441;SDS011;64019;48.312;14.226;2022-12-07T14:25:50;13.93;;;7.30;;
75441;SDS011;64019;48.312;14.226;2022-12-07T14:28:27;13.23;;;6.63;;
75441;SDS011;64019;48.312;14.226;2022-12-07T14:30:57;12.00;;;6.70;;
75441;SDS011;64019;48.312;14.226;2022-12-07T14:33:24;16.23;;;7.20;;
75441;SDS011;64019;48.312;14.226;2022-12-07T14:35:50;16.20;;;7.70;;
75441;SDS011;64019;48.312;14.226;2022-12-07T14:38:20;15.73;;;6.97;;
75441;SDS011;64019;48.312;14.226;2022-12-07T14:40:49;13.17;;;6.67;;
75441;SDS011;64019;48.312;14.226;2022-12-07T14:43:19;14.37;;;6.93;;
75441;SDS011;64019;48.312;14.226;2022-12-07T14:45:45;15.17;;;7.00;;
75441;SDS011;64019;48.312;14.226;2022-12-07T14:48:12;13.17;;;6.73;;
75441;SDS011;64019;48.312;14.226;2022-12-07T14:50:44;12.13;;;6.57;;
75441;SDS011;64019;48.312;14.226;2022-12-07T14:53:17;10.90;;;6.20;;
75441;SDS011;64019;48.312;14.226;2022-12-07T14:55:47;14.03;;;7.17;;
75441;SDS011;64019;48.312;14.226;2022-12-07T14:58:13;11.67;;;6.07;;
75441;SDS011;64019;48.312;14.226;2022-12-07T15:00:40;11.73;;;5.80;;
75441;SDS011;64019;48.312;14.226;2022-12-07T15:03:06;10.20;;;5.83;;
75441;SDS011;64019;48.312;14.226;2022-12-07T15:05:32;11.40;;;5.60;;
75441;SDS011;64019;48.312;14.226;2022-12-07T15:07:58;14.27;;;6.47;;
75441;SDS011;64019;48.312;14.226;2022-12-07T15:10:25;13.10;;;7.07;;
75441;SDS011;64019;48.312;14.226;2022-12-07T15:12:59;15.97;;;8.00;;
75441;SDS011;64019;48.312;14.226;2022-12-07T15:15:46;16.00;;;7.43;;
75441;SDS011;64019;48.312;14.226;2022-12-07T15:18:12;15.47;;;7.23;;
75441;SDS011;64019;48.312;14.226;2022-12-07T15:20:38;13.53;;;7.03;;
75441;SDS011;64019;48.312;14.226;2022-12-07T15:23:04;20.43;;;7.20;;
75441;SDS011;64019;48.312;14.226;2022-12-07T15:25:30;13.93;;;6.83;;
75441;SDS011;64019;48.312;14.226;2022-12-07T15:27:56;10.97;;;5.73;;
75441;SDS011;64019;48.312;14.226;2022-12-07T15:30:21;13.50;;;6.47;;
75441;SDS011;64019;48.312;14.226;2022-12-07T15:32:50;13.70;;;6.40;;
75441;SDS011;64019;48.312;14.226;2022-12-07T15:35:16;10.53;;;6.23;;
75441;SDS011;64019;48.312;14.226;2022-12-07T15:37:42;12.07;;;6.10;;
75441;SDS011;64019;48.312;14.226;2022-12-07T15:40:08;14.00;;;7.27;;
75441;SDS011;64019;48.312;14.226;2022-12-07T15:42:37;11.60;;;6.67;;
75441;SDS011;64019;48.312;14.226;2022-12-07T15:45:04;13.70;;;7.13;;
75441;SDS011;64019;48.312;14.226;2022-12-07T15:47:32;12.20;;;6.30;;
75441;SDS011;64019;48.312;14.226;2022-12-07T15:50:01;11.40;;;6.60;;
75441;SDS011;64019;48.312;14.226;2022-12-07T15:52:28;15.60;;;7.43;;
75441;SDS011;64019;48.312;14.226;2022-12-07T15:54:53;15.43;;;7.53;;
75441;SDS011;64019;48.312;14.226;2022-12-07T15:57:19;16.63;;;7.67;;
75441;SDS011;64019;48.312;14.226;2022-12-07T15:59:45;14.43;;;7.70;;
75441;SDS011;64019;48.312;14.226;2022-12-07T16:02:10;18.13;;;8.43;;
75441;SDS011;64019;48.312;14.226;2022-12-07T16:04:36;18.47;;;8.00;;
75441;SDS011;64019;48.312;14.226;2022-12-07T16:07:02;16.00;;;7.63;;
75441;SDS011;64019;48.312;14.226;2022-12-07T16:09:28;27.07;;;8.30;;
75441;SDS011;64019;48.312;14.226;2022-12-07T16:11:54;13.03;;;7.37;;
75441;SDS011;64019;48.312;14.226;2022-12-07T16:14:19;23.43;;;9.70;;
75441;SDS011;64019;48.312;14.226;2022-12-07T16:16:46;22.97;;;10.17;;
75441;SDS011;64019;48.312;14.226;2022-12-07T16:19:12;17.77;;;9.67;;
75441;SDS011;64019;48.312;14.226;2022-12-07T16:21:38;17.63;;;9.37;;
75441;SDS011;64019;48.312;14.226;2022-12-07T16:24:04;19.30;;;8.77;;
75441;SDS011;64019;48.312;14.226;2022-12-07T16:26:30;16.07;;;8.03;;
75441;SDS011;64019;48.312;14.226;2022-12-07T16:28:56;18.00;;;8.70;;
75441;SDS011;64019;48.312;14.226;2022-12-07T16:31:23;15.40;;;7.00;;
75441;SDS011;64019;48.312;14.226;2022-12-07T16:33:52;12.93;;;7.17;;
75441;SDS011;64019;48.312;14.226;2022-12-07T16:36:19;15.40;;;7.33;;
75441;SDS011;64019;48.312;14.226;2022-12-07T16:38:47;14.83;;;7.30;;
75441;SDS011;64019;48.312;14.226;2022-12-07T16:41:13;17.93;;;8.00;;
75441;SDS011;64019;48.312;14.226;2022-12-07T16:43:39;14.97;;;8.40;;
75441;SDS011;64019;48.312;14.226;2022-12-07T16:46:05;16.20;;;8.33;;
75441;SDS011;64019;48.312;14.226;2022-12-07T16:48:31;16.90;;;9.00;;